Time;durP1;ratioP1;P1;durP2;ratioP2;P2;SDS_P1;SDS_P2;PMS_P1;PMS_P2;Temp;Humidity;BMP_temperature;BMP_pressure;BME280_temperature;BME280_humidity;BME280_pressure;Samples;Min_cycle;Max_cycle;Signal;HPM_P1;HPM_P2
2023/01/11 00:02:06;;;;;;;;;;;7.30;99.90;;;;;;5086956;28;19939;-64
2023/01/11 00:04:31;;;;;;;;;;;7.20;99.90;;;;;;5085492;28;19981;-64
2023/01/11 00:06:57;;;;;;;;;;;7.30;99.90;;;;;;5086392;28;19921;-65
2023/01/11 00:09:22;;;;;;;;;;;7.20;99.90;;;;;;5098374;28;19912;-64
2023/01/11 00:11:48;;;;;;;;;;;7.30;99.90;;;;;;5082967;28;20041;-65
2023/01/11 00:14:14;;;;;;;;;;;7.30;99.90;;;;;;5088730;28;20377;-63
2023/01/11 00:16:39;;;;;;;;;;;7.20;99.90;;;;;;5083527;28;19919;-65
2023/01/11 00:19:05;;;;;;;;;;;7.20;99.90;;;;;;5086946;28;19971;-64
2023/01/11 00:21:31;;;;;;;;;;;7.10;99.90;;;;;;5088087;28;19912;-65
2023/01/11 00:23:56;;;;;;;;;;;7.20;99.90;;;;;;5066862;28;20011;-63
2023/01/11 00:26:22;;;;;;;;;;;7.30;99.90;;;;;;5100452;28;19919;-63
2023/01/11 00:28:48;;;;;;;;;;;7.20;99.90;;;;;;5093423;28;19955;-64
2023/01/11 00:31:14;;;;;;;;;;;7.10;99.90;;;;;;5081344;28;20002;-63
2023/01/11 00:33:39;;;;;;;;;;;7.00;99.90;;;;;;5085732;28;19908;-65
2023/01/11 00:36:05;;;;;;;;;;;7.00;99.90;;;;;;5084848;28;19919;-64
2023/01/11 00:38:42;;;;;;;;;;;7.00;99.90;;;;;;5085772;28;19919;-63
2023/01/11 00:49:21;;;;;;;;;;;7.80;99.90;;;;;;5100927;28;20012;-64
2023/01/11 00:51:46;;;;;;;;;;;7.90;99.90;;;;;;5095426;28;19983;-64
2023/01/11 00:54:12;;;;;;;;;;;8.00;99.90;;;;;;5085974;28;19951;-64
2023/01/11 00:56:37;;;;;;;;;;;8.10;99.90;;;;;;5086120;28;19923;-63
2023/01/11 00:59:03;;;;;;;;;;;8.20;99.90;;;;;;5083810;28;19912;-64
2023/01/11 01:01:29;;;;;;;;;;;8.30;99.90;;;;;;5087369;28;19916;-64
2023/01/11 01:03:54;;;;;;;;;;;8.30;99.90;;;;;;5103031;28;20296;-66
2023/01/11 01:06:20;;;;;;;;;;;8.30;99.90;;;;;;5091649;28;19976;-64
2023/01/11 01:08:46;;;;;;;;;;;8.40;99.90;;;;;;5091536;28;19995;-64
2023/01/11 01:11:11;;;;;;;;;;;8.40;99.90;;;;;;5073523;28;19916;-63
2023/01/11 01:16:21;;;;;;;;;;;8.40;99.90;;;;;;5096396;28;19934;-63
2023/01/11 01:18:46;;;;;;;;;;;8.40;99.90;;;;;;5101494;28;19979;-64
2023/01/11 01:21:12;;;;;;;;;;;8.50;99.90;;;;;;5092244;28;20338;-64
2023/01/11 01:23:37;;;;;;;;;;;8.50;99.90;;;;;;5104848;28;20328;-64
2023/01/11 01:26:03;;;;;;;;;;;8.50;99.90;;;;;;5089692;28;20392;-64
2023/01/11 01:28:29;;;;;;;;;;;8.50;99.90;;;;;;5091761;28;19930;-63
2023/01/11 01:30:54;;;;;;;;;;;8.50;99.90;;;;;;5085983;28;19919;-63
2023/01/11 01:33:20;;;;;;;;;;;8.50;99.90;;;;;;5085944;28;20019;-63
2023/01/11 01:35:45;;;;;;;;;;;8.50;99.90;;;;;;5090115;28;19919;-63
2023/01/11 01:38:11;;;;;;;;;;;8.50;99.90;;;;;;5087226;28;20318;-64
2023/01/11 01:40:43;;;;;;;;;;;8.40;99.90;;;;;;5091015;28;19919;-63
2023/01/11 01:43:13;;;;;;;;;;;8.30;99.90;;;;;;5102313;28;20565;-64
2023/01/11 01:45:40;;;;;;;;;;;8.20;99.90;;;;;;5084492;28;19965;-64
2023/01/11 01:48:07;;;;;;;;;;;8.20;99.90;;;;;;5088695;28;19912;-63
2023/01/11 01:50:32;;;;;;;;;;;8.20;99.90;;;;;;5083976;28;20251;-65
2023/01/11 01:53:03;;;;;;;;;;;8.20;99.90;;;;;;5088730;28;19912;-64
2023/01/11 01:55:30;;;;;;;;;;;8.20;99.90;;;;;;5089456;28;19920;-63
2023/01/11 01:57:57;;;;;;;;;;;8.30;99.90;;;;;;5069237;28;20350;-63
2023/01/11 02:00:22;;;;;;;;;;;8.10;99.90;;;;;;5089157;28;20756;-64
2023/01/11 02:02:48;;;;;;;;;;;8.00;99.90;;;;;;5100284;28;19986;-64
2023/01/11 02:05:14;;;;;;;;;;;7.90;99.90;;;;;;5088870;28;19912;-64
2023/01/11 02:07:42;;;;;;;;;;;7.90;99.90;;;;;;5087258;28;19974;-63
2023/01/11 02:10:18;;;;;;;;;;;7.70;99.90;;;;;;5088198;28;19920;-63
2023/01/11 02:12:50;;;;;;;;;;;7.40;99.90;;;;;;5084008;28;19917;-64
2023/01/11 02:15:17;;;;;;;;;;;7.20;99.90;;;;;;5092138;28;20318;-63
2023/01/11 02:17:42;;;;;;;;;;;7.10;99.90;;;;;;5088539;28;19991;-64
2023/01/11 02:20:11;;;;;;;;;;;7.00;99.90;;;;;;5087442;28;19969;-64
2023/01/11 02:22:39;;;;;;;;;;;7.00;99.90;;;;;;5084991;28;19912;-64
2023/01/11 02:25:05;;;;;;;;;;;6.90;99.90;;;;;;5087007;28;19912;-63
2023/01/11 02:27:49;;;;;;;;;;;6.90;99.90;;;;;;5088445;28;19912;-63
2023/01/11 02:30:14;;;;;;;;;;;6.90;99.90;;;;;;5087307;28;19951;-64
2023/01/11 02:32:47;;;;;;;;;;;7.00;99.90;;;;;;5087792;28;19957;-63
2023/01/11 02:35:21;;;;;;;;;;;7.00;99.90;;;;;;5086011;28;19912;-63
2023/01/11 02:37:47;;;;;;;;;;;6.90;99.90;;;;;;5080710;28;19916;-62
2023/01/11 02:40:16;;;;;;;;;;;6.70;99.90;;;;;;5083462;28;19916;-63
2023/01/11 02:45:57;;;;;;;;;;;6.40;99.90;;;;;;5072127;28;19924;-64
2023/01/11 02:48:41;;;;;;;;;;;6.30;99.90;;;;;;5102040;28;19958;-64
2023/01/11 02:51:10;;;;;;;;;;;6.30;99.90;;;;;;5100516;28;19920;-64
2023/01/11 02:54:08;;;;;;;;;;;6.40;99.90;;;;;;5081601;28;19911;-63
2023/01/11 02:56:36;;;;;;;;;;;6.40;99.90;;;;;;5042462;28;19924;-63
2023/01/11 02:59:03;;;;;;;;;;;6.40;99.90;;;;;;5083725;28;19912;-63
2023/01/11 03:01:42;;;;;;;;;;;6.40;99.90;;;;;;5085737;28;19916;-63
2023/01/11 03:04:21;;;;;;;;;;;6.30;99.90;;;;;;5089116;28;19920;-63
2023/01/11 03:06:47;;;;;;;;;;;6.30;99.90;;;;;;5093391;28;19956;-64
2023/01/11 03:09:23;;;;;;;;;;;6.30;99.90;;;;;;5105172;28;19972;-63
2023/01/11 03:14:48;;;;;;;;;;;6.30;99.90;;;;;;5083562;28;19962;-64
2023/01/11 03:17:14;;;;;;;;;;;6.30;99.90;;;;;;5090563;28;19985;-62
2023/01/11 03:19:47;;;;;;;;;;;6.20;99.90;;;;;;5089687;28;19916;-63
2023/01/11 03:22:31;;;;;;;;;;;6.20;99.90;;;;;;5085461;28;19969;-64
2023/01/11 03:25:02;;;;;;;;;;;6.10;99.90;;;;;;5089402;28;19908;-62
2023/01/11 03:27:28;;;;;;;;;;;6.00;99.90;;;;;;5089077;28;20388;-64
2023/01/11 03:29:53;;;;;;;;;;;6.00;99.90;;;;;;5090645;28;19913;-63
2023/01/11 03:32:28;;;;;;;;;;;5.90;99.90;;;;;;5080132;28;19912;-64
2023/01/11 03:35:17;;;;;;;;;;;5.90;99.90;;;;;;5088004;28;19912;-63
2023/01/11 03:37:59;;;;;;;;;;;5.80;99.90;;;;;;5097322;28;19913;-63
2023/01/11 03:40:36;;;;;;;;;;;5.80;99.90;;;;;;5084212;28;19916;-63
2023/01/11 03:43:11;;;;;;;;;;;5.80;99.90;;;;;;5082889;28;20236;-62
2023/01/11 03:45:46;;;;;;;;;;;5.80;99.90;;;;;;5086996;28;19916;-63
2023/01/11 03:48:14;;;;;;;;;;;5.80;99.90;;;;;;5083238;28;19916;-64
2023/01/11 03:50:40;;;;;;;;;;;5.70;99.90;;;;;;5089621;28;19920;-64
2023/01/11 03:53:06;;;;;;;;;;;5.60;99.90;;;;;;5089302;28;19960;-63
2023/01/11 03:55:35;;;;;;;;;;;5.70;99.90;;;;;;5092185;28;19919;-63
2023/01/11 03:58:01;;;;;;;;;;;5.70;99.90;;;;;;5108087;28;19995;-63
2023/01/11 04:00:27;;;;;;;;;;;5.60;99.90;;;;;;5102841;28;19986;-64
2023/01/11 04:02:53;;;;;;;;;;;5.60;99.90;;;;;;5089789;28;20297;-63
2023/01/11 04:05:19;;;;;;;;;;;5.60;99.90;;;;;;5081398;28;19920;-64
2023/01/11 04:07:44;;;;;;;;;;;5.60;99.90;;;;;;5084367;28;19989;-66
2023/01/11 04:10:10;;;;;;;;;;;5.70;99.90;;;;;;5089294;28;19916;-63
2023/01/11 04:12:36;;;;;;;;;;;5.80;99.90;;;;;;5085771;28;19923;-62
2023/01/11 04:15:04;;;;;;;;;;;5.80;99.90;;;;;;5083177;28;20385;-62
2023/01/11 04:17:29;;;;;;;;;;;5.90;99.90;;;;;;5091203;28;19912;-62
2023/01/11 04:19:55;;;;;;;;;;;6.00;99.90;;;;;;5090101;28;19919;-62
2023/01/11 04:22:20;;;;;;;;;;;6.00;99.90;;;;;;5083489;28;20002;-64
2023/01/11 04:24:46;;;;;;;;;;;6.00;99.90;;;;;;5084576;28;19920;-63
2023/01/11 04:27:11;;;;;;;;;;;6.10;99.90;;;;;;5087418;28;19923;-64
2023/01/11 04:29:37;;;;;;;;;;;6.20;99.90;;;;;;5088901;28;20011;-64
2023/01/11 04:32:03;;;;;;;;;;;6.20;99.90;;;;;;5086336;28;20370;-62
2023/01/11 04:34:28;;;;;;;;;;;6.20;99.90;;;;;;5093791;28;19913;-63
2023/01/11 04:36:54;;;;;;;;;;;6.00;99.90;;;;;;5095677;28;19916;-64
2023/01/11 04:39:19;;;;;;;;;;;5.90;99.90;;;;;;5084927;28;19942;-65
2023/01/11 04:44:29;;;;;;;;;;;6.00;99.90;;;;;;5090656;28;19963;-62
2023/01/11 04:46:54;;;;;;;;;;;5.90;99.90;;;;;;5093460;28;19947;-62
2023/01/11 04:49:20;;;;;;;;;;;5.90;99.90;;;;;;5090070;28;19924;-63
2023/01/11 04:51:45;;;;;;;;;;;5.90;99.90;;;;;;5088450;28;19958;-63
2023/01/11 04:54:11;;;;;;;;;;;5.90;99.90;;;;;;5091454;28;19912;-65
2023/01/11 04:56:37;;;;;;;;;;;6.00;99.90;;;;;;5075911;28;19912;-62
2023/01/11 04:59:02;;;;;;;;;;;6.00;99.90;;;;;;5087262;28;19912;-62
2023/01/11 05:01:28;;;;;;;;;;;6.10;99.90;;;;;;5090535;28;19916;-65
2023/01/11 05:03:53;;;;;;;;;;;6.10;99.90;;;;;;5091897;28;20003;-65
2023/01/11 05:06:21;;;;;;;;;;;6.10;99.90;;;;;;5091311;28;20046;-62
2023/01/11 05:08:47;;;;;;;;;;;6.20;99.90;;;;;;5089328;28;19912;-63
2023/01/11 05:11:13;;;;;;;;;;;6.20;99.90;;;;;;5092157;28;19959;-63
2023/01/11 05:13:41;;;;;;;;;;;6.20;99.90;;;;;;5094853;28;19911;-64
2023/01/11 05:16:07;;;;;;;;;;;6.20;99.90;;;;;;5090262;28;20386;-63
2023/01/11 05:18:32;;;;;;;;;;;6.30;99.90;;;;;;5106697;28;19955;-65
2023/01/11 05:20:58;;;;;;;;;;;6.30;99.90;;;;;;5096652;28;20019;-65
2023/01/11 05:23:23;;;;;;;;;;;6.40;99.90;;;;;;5088004;28;19916;-64
2023/01/11 05:25:49;;;;;;;;;;;6.40;99.90;;;;;;5092030;28;20310;-63
2023/01/11 05:28:14;;;;;;;;;;;6.50;99.90;;;;;;5091249;28;19912;-64
2023/01/11 05:30:40;;;;;;;;;;;6.50;99.90;;;;;;5083672;28;19916;-63
2023/01/11 05:33:05;;;;;;;;;;;6.50;99.90;;;;;;5090980;28;19912;-65
2023/01/11 05:35:31;;;;;;;;;;;6.60;99.90;;;;;;5087737;28;19913;-64
2023/01/11 05:37:56;;;;;;;;;;;6.50;99.90;;;;;;5095788;28;19966;-64
2023/01/11 05:40:22;;;;;;;;;;;6.50;99.90;;;;;;5093859;28;19923;-63
2023/01/11 05:42:47;;;;;;;;;;;6.50;99.90;;;;;;5088995;28;20321;-63
2023/01/11 05:45:28;;;;;;;;;;;6.40;99.90;;;;;;5087114;28;19912;-64
2023/01/11 05:47:54;;;;;;;;;;;6.40;99.90;;;;;;5088892;28;19924;-63
2023/01/11 05:50:20;;;;;;;;;;;6.40;99.90;;;;;;5088302;28;19958;-63
2023/01/11 05:52:45;;;;;;;;;;;6.40;99.90;;;;;;5102213;28;20381;-64
2023/01/11 05:55:11;;;;;;;;;;;6.40;99.90;;;;;;5103210;28;19912;-63
2023/01/11 05:57:39;;;;;;;;;;;6.40;99.90;;;;;;5102812;28;19912;-63
2023/01/11 06:00:05;;;;;;;;;;;6.40;99.90;;;;;;5090288;28;19923;-63
2023/01/11 06:02:31;;;;;;;;;;;6.40;99.90;;;;;;5089877;28;19912;-65
2023/01/11 06:04:56;;;;;;;;;;;6.50;99.90;;;;;;5087480;28;19912;-64
2023/01/11 06:07:24;;;;;;;;;;;6.50;99.90;;;;;;5089224;28;19916;-65
2023/01/11 06:09:49;;;;;;;;;;;6.50;99.90;;;;;;5086088;28;20406;-67
2023/01/11 06:12:15;;;;;;;;;;;6.60;99.90;;;;;;5086779;28;19918;-63
2023/01/11 06:14:40;;;;;;;;;;;6.50;99.90;;;;;;5085178;28;20417;-62
2023/01/11 06:17:06;;;;;;;;;;;6.50;99.90;;;;;;5090837;28;20024;-64
2023/01/11 06:19:32;;;;;;;;;;;6.40;99.90;;;;;;5085474;28;19950;-63
2023/01/11 06:21:57;;;;;;;;;;;6.40;99.90;;;;;;5088486;28;19969;-64
2023/01/11 06:24:23;;;;;;;;;;;6.40;99.90;;;;;;5088991;28;19912;-64
2023/01/11 06:26:51;;;;;;;;;;;6.40;99.90;;;;;;5087745;28;19950;-64
2023/01/11 06:29:16;;;;;;;;;;;6.50;99.90;;;;;;5083546;28;20267;-64
2023/01/11 06:31:42;;;;;;;;;;;6.50;99.90;;;;;;5085635;28;20002;-63
2023/01/11 06:34:08;;;;;;;;;;;6.50;99.90;;;;;;5070506;28;19916;-63
2023/01/11 06:36:33;;;;;;;;;;;6.50;99.90;;;;;;5092702;28;20304;-63
2023/01/11 06:38:59;;;;;;;;;;;6.60;99.90;;;;;;5091076;28;19999;-63
2023/01/11 06:41:24;;;;;;;;;;;6.60;99.90;;;;;;5099454;28;19978;-62
2023/01/11 06:43:50;;;;;;;;;;;6.60;99.90;;;;;;5096044;28;19911;-64
2023/01/11 06:46:16;;;;;;;;;;;6.60;99.90;;;;;;5077764;28;20280;-63
2023/01/11 06:48:42;;;;;;;;;;;6.50;99.90;;;;;;5110903;28;19918;-64
2023/01/11 06:51:10;;;;;;;;;;;6.60;99.90;;;;;;5102218;28;20015;-63
2023/01/11 06:53:36;;;;;;;;;;;6.60;99.90;;;;;;5100094;28;19912;-64
2023/01/11 06:56:02;;;;;;;;;;;6.50;99.90;;;;;;5102172;28;19911;-65
2023/01/11 06:58:28;;;;;;;;;;;6.50;99.90;;;;;;5110718;28;19919;-65
2023/01/11 07:00:55;;;;;;;;;;;6.50;99.90;;;;;;5105134;28;19915;-65
2023/01/11 07:03:23;;;;;;;;;;;6.50;99.90;;;;;;5099136;28;20021;-65
2023/01/11 07:05:48;;;;;;;;;;;6.60;99.90;;;;;;5090374;28;20319;-66
2023/01/11 07:08:14;;;;;;;;;;;6.80;99.90;;;;;;5099817;28;19912;-65
2023/01/11 07:10:40;;;;;;;;;;;6.80;99.90;;;;;;5091843;28;19927;-65
2023/01/11 07:13:06;;;;;;;;;;;6.80;99.90;;;;;;5093427;28;20004;-65
2023/01/11 07:15:31;;;;;;;;;;;6.80;99.90;;;;;;5074402;28;19954;-64
2023/01/11 07:17:58;;;;;;;;;;;6.90;99.90;;;;;;5088348;28;20373;-65
2023/01/11 07:20:24;;;;;;;;;;;6.90;99.90;;;;;;5082477;28;19920;-66
2023/01/11 07:22:50;;;;;;;;;;;7.00;99.90;;;;;;5110321;28;19934;-65
2023/01/11 07:25:16;;;;;;;;;;;7.00;99.90;;;;;;5081218;28;20470;-65
2023/01/11 07:27:41;;;;;;;;;;;7.10;99.90;;;;;;5103866;28;19998;-65
2023/01/11 07:30:07;;;;;;;;;;;7.10;99.90;;;;;;5097988;28;19920;-66
2023/01/11 07:32:34;;;;;;;;;;;7.10;99.90;;;;;;5094797;28;19917;-66
2023/01/11 07:35:00;;;;;;;;;;;7.20;99.90;;;;;;5104718;28;19911;-64
2023/01/11 07:37:25;;;;;;;;;;;7.20;99.90;;;;;;5105448;28;19965;-65
2023/01/11 07:39:51;;;;;;;;;;;7.30;99.90;;;;;;5070857;28;19923;-65
2023/01/11 07:45:01;;;;;;;;;;;7.50;99.90;;;;;;5102160;28;20002;-64
2023/01/11 07:47:26;;;;;;;;;;;7.60;99.90;;;;;;5103304;28;19912;-64
2023/01/11 07:49:52;;;;;;;;;;;7.70;99.90;;;;;;5096165;28;19919;-65
2023/01/11 07:52:18;;;;;;;;;;;7.90;99.90;;;;;;5099636;28;19977;-67
2023/01/11 07:54:43;;;;;;;;;;;8.10;99.90;;;;;;5100727;28;20043;-65
2023/01/11 07:57:09;;;;;;;;;;;8.20;99.90;;;;;;5101379;28;19955;-65
2023/01/11 07:59:34;;;;;;;;;;;8.30;99.90;;;;;;5103393;28;20369;-64
2023/01/11 08:02:00;;;;;;;;;;;8.50;99.90;;;;;;5105171;28;20437;-66
2023/01/11 08:04:25;;;;;;;;;;;8.50;99.90;;;;;;5104026;28;20361;-65
2023/01/11 08:06:51;;;;;;;;;;;8.50;99.90;;;;;;5071568;28;20274;-63
2023/01/11 08:09:17;;;;;;;;;;;8.60;99.90;;;;;;5101974;28;20048;-65
2023/01/11 08:14:38;;;;;;;;;;;8.70;99.90;;;;;;5108134;28;19973;-65
2023/01/11 08:17:04;;;;;;;;;;;8.70;99.90;;;;;;5108723;28;19939;-65
2023/01/11 08:19:30;;;;;;;;;;;8.80;99.90;;;;;;5105961;28;20340;-64
2023/01/11 08:21:55;;;;;;;;;;;8.90;99.90;;;;;;5109795;28;19915;-65
2023/01/11 08:24:21;;;;;;;;;;;9.00;99.90;;;;;;5111708;28;19927;-63
2023/01/11 08:26:47;;;;;;;;;;;9.20;99.90;;;;;;5099160;28;20030;-64
2023/01/11 08:29:13;;;;;;;;;;;9.30;99.90;;;;;;5105286;28;19990;-65
2023/01/11 08:31:38;;;;;;;;;;;9.40;99.90;;;;;;5111191;28;19915;-66
2023/01/11 08:34:04;;;;;;;;;;;9.50;99.90;;;;;;5111833;28;20034;-64
2023/01/11 08:36:31;;;;;;;;;;;9.60;99.90;;;;;;5107716;28;19961;-65
2023/01/11 08:38:57;;;;;;;;;;;9.70;99.90;;;;;;5109608;28;19919;-66
2023/01/11 08:41:23;;;;;;;;;;;9.70;99.90;;;;;;5103052;28;19915;-65
2023/01/11 08:43:48;;;;;;;;;;;9.70;99.90;;;;;;5087812;28;20355;-66
2023/01/11 08:46:15;;;;;;;;;;;9.80;99.90;;;;;;5094037;28;19912;-65
2023/01/11 08:48:41;;;;;;;;;;;9.80;99.90;;;;;;5110527;28;19916;-65
2023/01/11 08:51:06;;;;;;;;;;;9.90;99.90;;;;;;5108095;28;19931;-64
2023/01/11 08:53:32;;;;;;;;;;;9.90;99.90;;;;;;5113432;28;19958;-65
2023/01/11 08:55:57;;;;;;;;;;;10.00;99.90;;;;;;5102722;28;20602;-63
2023/01/11 08:58:24;;;;;;;;;;;10.00;99.90;;;;;;5098580;28;19916;-66
2023/01/11 09:00:50;;;;;;;;;;;10.10;99.90;;;;;;5086226;28;19924;-66
2023/01/11 09:03:17;;;;;;;;;;;10.00;99.90;;;;;;5108037;28;19939;-65
2023/01/11 09:05:43;;;;;;;;;;;10.00;99.90;;;;;;5108221;28;19916;-64
2023/01/11 09:08:09;;;;;;;;;;;10.10;99.90;;;;;;5107925;28;20004;-61
2023/01/11 09:10:34;;;;;;;;;;;10.10;99.90;;;;;;5109253;28;19925;-64
2023/01/11 09:13:00;;;;;;;;;;;10.10;99.90;;;;;;5105784;28;19943;-63
2023/01/11 09:15:26;;;;;;;;;;;10.10;99.90;;;;;;5098922;28;20373;-63
2023/01/11 09:17:52;;;;;;;;;;;10.20;99.90;;;;;;5101214;28;19965;-62
2023/01/11 09:20:18;;;;;;;;;;;10.20;99.90;;;;;;5103609;28;19930;-63
2023/01/11 09:22:51;;;;;;;;;;;10.20;99.90;;;;;;5105025;28;19908;-64
2023/01/11 09:25:17;;;;;;;;;;;10.20;99.90;;;;;;5110281;28;20365;-63
2023/01/11 09:27:46;;;;;;;;;;;10.20;99.90;;;;;;5099305;28;19912;-64
2023/01/11 09:30:12;;;;;;;;;;;10.30;99.90;;;;;;5105599;28;20418;-64
2023/01/11 09:32:38;;;;;;;;;;;10.40;99.90;;;;;;5108311;28;19973;-64
2023/01/11 09:35:03;;;;;;;;;;;10.40;99.90;;;;;;5112679;28;19908;-64
2023/01/11 09:37:30;;;;;;;;;;;10.50;99.90;;;;;;5107286;28;19988;-63
2023/01/11 09:39:58;;;;;;;;;;;10.50;99.90;;;;;;5105557;28;19938;-63
2023/01/11 09:42:34;;;;;;;;;;;10.60;99.90;;;;;;5104587;28;19932;-62
2023/01/11 09:45:19;;;;;;;;;;;10.60;99.90;;;;;;5102164;28;19919;-63
2023/01/11 09:47:51;;;;;;;;;;;10.70;99.90;;;;;;5106755;28;20262;-63
2023/01/11 09:50:20;;;;;;;;;;;10.80;99.90;;;;;;5092844;28;19962;-64
2023/01/11 09:52:50;;;;;;;;;;;10.80;99.90;;;;;;5108996;28;19976;-62
2023/01/11 09:55:21;;;;;;;;;;;10.80;99.90;;;;;;5101373;28;19955;-64
2023/01/11 09:57:50;;;;;;;;;;;11.00;99.90;;;;;;5103011;28;19912;-64
2023/01/11 10:00:16;;;;;;;;;;;11.10;99.90;;;;;;5088082;28;19968;-63
2023/01/11 10:03:09;;;;;;;;;;;11.20;99.90;;;;;;5103892;28;19916;-63
2023/01/11 10:05:35;;;;;;;;;;;11.30;99.90;;;;;;5076652;28;19933;-63
2023/01/11 10:08:10;;;;;;;;;;;11.40;99.90;;;;;;5106975;28;19911;-64
2023/01/11 10:10:47;;;;;;;;;;;11.60;99.90;;;;;;5101724;28;19911;-63
2023/01/11 10:13:32;;;;;;;;;;;11.60;99.90;;;;;;5089153;28;19923;-64
2023/01/11 10:16:19;;;;;;;;;;;11.80;99.90;;;;;;5064552;28;19916;-63
2023/01/11 10:19:04;;;;;;;;;;;11.70;99.90;;;;;;5102077;28;19915;-63
2023/01/11 10:21:53;;;;;;;;;;;11.80;99.90;;;;;;5106334;28;19952;-64
2023/01/11 10:24:24;;;;;;;;;;;11.90;99.90;;;;;;5091987;28;19923;-63
2023/01/11 10:26:53;;;;;;;;;;;11.90;99.90;;;;;;5086227;28;20342;-64
2023/01/11 10:29:37;;;;;;;;;;;11.90;99.90;;;;;;5108971;28;19946;-64
2023/01/11 10:34:55;;;;;;;;;;;12.10;99.90;;;;;;5097532;28;19931;-64
2023/01/11 10:37:45;;;;;;;;;;;12.20;99.90;;;;;;5095918;28;20377;-63
2023/01/11 10:40:32;;;;;;;;;;;12.30;99.90;;;;;;5085436;28;19920;-64
2023/01/11 10:43:15;;;;;;;;;;;12.40;99.90;;;;;;5093479;28;19954;-64
2023/01/11 10:45:49;;;;;;;;;;;12.50;99.90;;;;;;5094828;28;19939;-63
2023/01/11 10:48:22;;;;;;;;;;;12.60;99.90;;;;;;5085445;28;19912;-64
2023/01/11 10:50:54;;;;;;;;;;;12.60;99.90;;;;;;5104737;28;20017;-64
2023/01/11 10:53:23;;;;;;;;;;;12.70;99.90;;;;;;5105947;28;19911;-62
2023/01/11 10:55:52;;;;;;;;;;;12.70;99.90;;;;;;5106300;28;19974;-63
2023/01/11 10:58:21;;;;;;;;;;;12.70;99.90;;;;;;5088828;28;19993;-61
2023/01/11 11:01:03;;;;;;;;;;;12.70;99.90;;;;;;5096793;28;20010;-63
2023/01/11 11:03:47;;;;;;;;;;;12.70;99.90;;;;;;5105109;28;20428;-62
2023/01/11 11:06:28;;;;;;;;;;;12.70;99.90;;;;;;5085178;28;19940;-62
2023/01/11 11:09:12;;;;;;;;;;;12.70;99.90;;;;;;5091905;28;19931;-62
2023/01/11 11:11:51;;;;;;;;;;;12.70;99.90;;;;;;5088906;28;19922;-62
2023/01/11 11:14:22;;;;;;;;;;;12.70;99.90;;;;;;5102845;28;19913;-64
2023/01/11 11:17:06;;;;;;;;;;;12.70;99.90;;;;;;5099532;28;19920;-65
2023/01/11 11:19:32;;;;;;;;;;;12.80;99.90;;;;;;5084018;28;19912;-63
2023/01/11 11:21:58;;;;;;;;;;;12.80;99.90;;;;;;5103013;28;20014;-63
2023/01/11 11:24:35;;;;;;;;;;;12.70;99.90;;;;;;5104419;28;19919;-62
2023/01/11 11:27:15;;;;;;;;;;;12.60;99.90;;;;;;5107155;28;20344;-64
2023/01/11 11:29:42;;;;;;;;;;;12.60;99.90;;;;;;5102513;28;20006;-64
2023/01/11 11:32:18;;;;;;;;;;;12.50;99.90;;;;;;5097097;28;19916;-63
2023/01/11 11:34:48;;;;;;;;;;;12.60;99.90;;;;;;5090933;28;20021;-65
2023/01/11 11:37:33;;;;;;;;;;;12.60;99.90;;;;;;5107154;28;19919;-65
2023/01/11 11:39:59;;;;;;;;;;;12.70;99.90;;;;;;5100709;28;20416;-62
2023/01/11 11:42:25;;;;;;;;;;;12.70;99.90;;;;;;5106388;28;19947;-63
2023/01/11 11:45:05;;;;;;;;;;;12.60;99.90;;;;;;5103589;28;19940;-65
2023/01/11 11:47:31;;;;;;;;;;;12.60;99.90;;;;;;5104421;28;19912;-63
2023/01/11 11:50:15;;;;;;;;;;;12.60;99.90;;;;;;5097971;28;19912;-63
2023/01/11 11:52:41;;;;;;;;;;;12.60;99.90;;;;;;5089581;28;19912;-64
2023/01/11 11:55:07;;;;;;;;;;;12.60;99.90;;;;;;5097506;28;20557;-64
2023/01/11 11:57:35;;;;;;;;;;;12.60;99.90;;;;;;5104776;28;20004;-66
2023/01/11 12:00:02;;;;;;;;;;;12.50;99.90;;;;;;5108032;28;19927;-62
2023/01/11 12:02:29;;;;;;;;;;;12.60;99.90;;;;;;5108088;28;19988;-63
2023/01/11 12:04:57;;;;;;;;;;;12.60;99.90;;;;;;5105351;28;19915;-64
2023/01/11 12:07:29;;;;;;;;;;;12.50;99.90;;;;;;5098818;28;19969;-64
2023/01/11 12:09:57;;;;;;;;;;;12.50;99.90;;;;;;5096766;28;20031;-65
2023/01/11 12:12:23;;;;;;;;;;;12.50;99.90;;;;;;5100013;28;19918;-64
2023/01/11 12:15:06;;;;;;;;;;;12.60;99.90;;;;;;5103742;28;19908;-63
2023/01/11 12:17:32;;;;;;;;;;;12.60;99.90;;;;;;5094015;28;20003;-64
2023/01/11 12:19:58;;;;;;;;;;;12.60;99.90;;;;;;5100675;28;20618;-65
2023/01/11 12:22:24;;;;;;;;;;;12.70;99.90;;;;;;5104179;28;19908;-65
2023/01/11 12:25:08;;;;;;;;;;;12.70;99.90;;;;;;5107285;28;19930;-65
2023/01/11 12:27:34;;;;;;;;;;;12.70;99.90;;;;;;5089526;28;19915;-63
2023/01/11 12:30:08;;;;;;;;;;;12.70;99.90;;;;;;5102799;28;19912;-66
2023/01/11 12:32:37;;;;;;;;;;;12.70;99.90;;;;;;5108635;28;20411;-63
2023/01/11 12:35:29;;;;;;;;;;;12.70;99.90;;;;;;5083449;28;19913;-66
2023/01/11 12:38:01;;;;;;;;;;;12.70;99.90;;;;;;5073812;28;20002;-62
2023/01/11 12:40:41;;;;;;;;;;;12.80;99.90;;;;;;5101535;28;19924;-63
2023/01/11 12:43:22;;;;;;;;;;;12.80;99.90;;;;;;5100897;28;19916;-63
2023/01/11 12:46:03;;;;;;;;;;;12.80;99.90;;;;;;5097783;28;19912;-65
2023/01/11 12:48:41;;;;;;;;;;;12.80;99.90;;;;;;5105486;28;19912;-64
2023/01/11 12:51:06;;;;;;;;;;;12.80;99.90;;;;;;5103532;28;20490;-64
2023/01/11 12:53:32;;;;;;;;;;;12.80;99.90;;;;;;5105681;28;19919;-64
2023/01/11 12:56:16;;;;;;;;;;;12.80;99.90;;;;;;5110624;28;19948;-63
2023/01/11 12:58:52;;;;;;;;;;;12.80;99.90;;;;;;5112116;28;20058;-65
2023/01/11 13:01:20;;;;;;;;;;;12.70;99.90;;;;;;5100888;28;19920;-63
2023/01/11 13:04:01;;;;;;;;;;;12.80;99.90;;;;;;5097921;28;20353;-64
2023/01/11 13:06:26;;;;;;;;;;;12.70;99.90;;;;;;5111968;28;20278;-62
2023/01/11 13:08:58;;;;;;;;;;;12.70;99.90;;;;;;5105833;28;19920;-63
2023/01/11 13:11:44;;;;;;;;;;;12.70;99.90;;;;;;5113360;28;19932;-62
2023/01/11 13:14:24;;;;;;;;;;;12.70;99.90;;;;;;5102733;28;20455;-61
2023/01/11 13:17:01;;;;;;;;;;;12.60;99.90;;;;;;5107167;28;19912;-66
2023/01/11 13:19:36;;;;;;;;;;;12.70;99.90;;;;;;5111646;28;19916;-63
2023/01/11 13:22:04;;;;;;;;;;;12.70;99.90;;;;;;5103215;28;19931;-63
2023/01/11 13:24:30;;;;;;;;;;;12.70;99.90;;;;;;5083735;28;19923;-63
2023/01/11 13:26:58;;;;;;;;;;;12.70;99.90;;;;;;5097962;28;20374;-64
2023/01/11 13:29:29;;;;;;;;;;;12.70;99.90;;;;;;5072200;28;20492;-64
2023/01/11 13:31:57;;;;;;;;;;;12.70;99.90;;;;;;5101988;28;20021;-65
2023/01/11 13:34:28;;;;;;;;;;;12.60;99.90;;;;;;5095298;28;19911;-64
2023/01/11 13:36:59;;;;;;;;;;;12.70;99.90;;;;;;5095878;28;19915;-64
2023/01/11 13:39:35;;;;;;;;;;;12.60;99.90;;;;;;5106111;28;19918;-62
2023/01/11 13:42:09;;;;;;;;;;;12.60;99.90;;;;;;5107572;28;19923;-64
2023/01/11 13:44:45;;;;;;;;;;;12.70;99.90;;;;;;5095555;28;19918;-64
2023/01/11 13:47:24;;;;;;;;;;;12.60;99.90;;;;;;5108003;28;19951;-65
2023/01/11 13:49:59;;;;;;;;;;;12.70;99.90;;;;;;5101801;28;19966;-65
2023/01/11 13:52:44;;;;;;;;;;;12.70;99.90;;;;;;5091526;28;19965;-64
2023/01/11 13:55:10;;;;;;;;;;;12.80;99.90;;;;;;5099976;28;19912;-63
2023/01/11 13:57:38;;;;;;;;;;;12.80;99.90;;;;;;5109230;28;20419;-64
2023/01/11 14:00:24;;;;;;;;;;;12.80;99.90;;;;;;5108030;28;19916;-64
2023/01/11 14:02:53;;;;;;;;;;;12.80;99.90;;;;;;5065090;28;20026;-64
2023/01/11 14:05:20;;;;;;;;;;;12.70;99.90;;;;;;5098366;28;19955;-64
2023/01/11 14:07:52;;;;;;;;;;;12.60;99.90;;;;;;5109024;28;20369;-63
2023/01/11 14:10:26;;;;;;;;;;;12.60;99.90;;;;;;5106290;28;20335;-63
2023/01/11 14:13:10;;;;;;;;;;;12.60;99.90;;;;;;5099265;28;19912;-65
2023/01/11 14:15:39;;;;;;;;;;;12.50;99.90;;;;;;5098470;28;20458;-63
2023/01/11 14:18:08;;;;;;;;;;;12.60;99.90;;;;;;5086956;28;20297;-64
2023/01/11 14:20:49;;;;;;;;;;;12.60;99.90;;;;;;5108360;28;19920;-64
2023/01/11 14:23:16;;;;;;;;;;;12.60;99.90;;;;;;5095396;28;19919;-63
2023/01/11 14:25:51;;;;;;;;;;;12.50;99.90;;;;;;5098451;28;20378;-62
2023/01/11 14:28:35;;;;;;;;;;;12.50;99.90;;;;;;5091903;28;19912;-64
2023/01/11 14:31:06;;;;;;;;;;;12.40;99.90;;;;;;5076177;28;19916;-63
2023/01/11 14:33:38;;;;;;;;;;;12.40;99.90;;;;;;5098462;28;20283;-64
2023/01/11 14:36:09;;;;;;;;;;;12.40;99.90;;;;;;5109686;28;19919;-65
2023/01/11 14:38:34;;;;;;;;;;;12.50;99.90;;;;;;5094379;28;19912;-64
2023/01/11 14:41:03;;;;;;;;;;;12.50;99.90;;;;;;5103194;28;19922;-65
2023/01/11 14:43:36;;;;;;;;;;;12.40;99.90;;;;;;5094697;28;19920;-63
2023/01/11 14:46:11;;;;;;;;;;;12.40;99.90;;;;;;5089251;28;20033;-65
2023/01/11 14:48:44;;;;;;;;;;;12.30;99.90;;;;;;5095954;28;19913;-65
2023/01/11 14:51:13;;;;;;;;;;;12.20;99.90;;;;;;5096251;28;20419;-63
2023/01/11 14:53:41;;;;;;;;;;;12.10;99.90;;;;;;5108526;28;19916;-66
2023/01/11 14:56:25;;;;;;;;;;;12.00;99.90;;;;;;5096424;28;19916;-65
2023/01/11 14:59:01;;;;;;;;;;;11.90;99.90;;;;;;5083410;28;19934;-63
2023/01/11 15:01:27;;;;;;;;;;;11.80;99.90;;;;;;5089382;28;20010;-64
2023/01/11 15:03:54;;;;;;;;;;;11.80;99.90;;;;;;5101063;28;20010;-64
2023/01/11 15:06:21;;;;;;;;;;;11.70;99.90;;;;;;5105289;28;19919;-62